Time;durP1;ratioP1;P1;durP2;ratioP2;P2;SDS_P1;SDS_P2;PMS_P1;PMS_P2;Temp;Humidity;BMP_temperature;BMP_pressure;BME280_temperature;BME280_humidity;BME280_pressure;Samples;Min_cycle;Max_cycle;Signal;HPM_P1;HPM_P2
2022/09/12 00:02:03;;;;;;;10.38;7.40;;;11.70;99.90;;;;;;5051067;28;20049;-81
2022/09/12 00:04:29;;;;;;;13.48;8.07;;;11.70;99.90;;;;;;5051462;28;20028;-80
2022/09/12 00:06:55;;;;;;;11.80;8.30;;;11.70;99.90;;;;;;5038091;28;20037;-80
2022/09/12 00:09:21;;;;;;;20.50;8.88;;;11.70;99.90;;;;;;5050332;28;20068;-80
2022/09/12 00:11:47;;;;;;;14.98;7.50;;;11.70;99.90;;;;;;5034365;28;20037;-80
2022/09/12 00:14:16;;;;;;;15.30;7.28;;;11.70;99.90;;;;;;5051278;28;20025;-80
2022/09/12 00:16:43;;;;;;;16.05;9.25;;;11.80;99.90;;;;;;5051664;28;20389;-80
2022/09/12 00:19:10;;;;;;;17.05;9.00;;;11.80;99.90;;;;;;5044442;28;20029;-79
2022/09/12 00:21:38;;;;;;;13.52;7.25;;;11.70;99.90;;;;;;5051734;28;20029;-81
2022/09/12 00:24:05;;;;;;;11.40;6.90;;;11.60;99.90;;;;;;5051994;28;20037;-81
2022/09/12 00:26:31;;;;;;;13.80;7.57;;;11.50;99.90;;;;;;5051584;28;20036;-81
2022/09/12 00:28:58;;;;;;;14.35;7.50;;;11.60;99.90;;;;;;5054677;28;20378;-81
2022/09/12 00:31:25;;;;;;;14.55;7.60;;;11.50;99.90;;;;;;5057606;28;20359;-81
2022/09/12 00:33:53;;;;;;;12.25;7.30;;;11.50;99.90;;;;;;5057949;28;20025;-81
2022/09/12 00:36:22;;;;;;;11.60;7.05;;;11.50;99.90;;;;;;5032683;28;20055;-81
2022/09/12 00:38:49;;;;;;;10.98;7.80;;;11.50;99.90;;;;;;5036641;28;20029;-81
2022/09/12 00:41:19;;;;;;;10.50;8.32;;;11.60;99.90;;;;;;5036014;28;20462;-81
2022/09/12 00:43:54;;;;;;;11.57;7.05;;;11.50;99.90;;;;;;5048769;28;20041;-81
2022/09/12 00:46:30;;;;;;;15.15;8.25;;;11.50;99.90;;;;;;5049192;28;20512;-81
2022/09/12 00:49:21;;;;;;;12.38;7.88;;;11.60;99.90;;;;;;5054367;28;20040;-81
2022/09/12 00:51:53;;;;;;;10.25;7.22;;;11.50;99.90;;;;;;5055882;28;20025;-79
2022/09/12 00:54:26;;;;;;;16.30;8.52;;;11.40;99.90;;;;;;5055561;28;20024;-80
2022/09/12 00:56:56;;;;;;;12.95;7.68;;;11.30;99.90;;;;;;5055740;28;20037;-80
2022/09/12 00:59:52;;;;;;;11.60;7.72;;;11.30;99.90;;;;;;5047058;28;20045;-80
2022/09/12 01:02:18;;;;;;;12.82;7.63;;;11.40;99.90;;;;;;5054617;28;20052;-79
2022/09/12 01:04:46;;;;;;;14.63;8.77;;;11.40;99.90;;;;;;5055009;28;20040;-80
2022/09/12 01:07:14;;;;;;;11.15;7.45;;;11.30;99.90;;;;;;5036531;28;20648;-80
2022/09/12 01:09:42;;;;;;;11.63;7.90;;;11.20;99.90;;;;;;5053640;28;20040;-80
2022/09/12 01:12:10;;;;;;;12.80;8.52;;;11.30;99.90;;;;;;5054594;28;20037;-78
2022/09/12 01:14:37;;;;;;;14.00;7.75;;;11.30;99.90;;;;;;5037207;28;20041;-79
2022/09/12 01:17:03;;;;;;;13.45;7.63;;;11.20;99.90;;;;;;5054761;28;20033;-79
2022/09/12 01:19:48;;;;;;;10.98;7.50;;;11.20;99.90;;;;;;5044366;28;20257;-79
2022/09/12 01:22:37;;;;;;;12.68;7.78;;;11.10;99.90;;;;;;5054641;28;20044;-79
2022/09/12 01:25:35;;;;;;;13.65;7.95;;;11.10;99.90;;;;;;5018710;28;20052;-79
2022/09/12 01:28:41;;;;;;;15.95;6.93;;;11.10;99.90;;;;;;5056286;28;20490;-80
2022/09/12 01:31:25;;;;;;;12.20;7.88;;;11.10;99.90;;;;;;5040051;28;20044;-79
2022/09/12 01:34:20;;;;;;;15.50;8.18;;;11.00;99.90;;;;;;5058403;28;20033;-79
2022/09/12 01:37:12;;;;;;;14.27;9.25;;;11.00;99.90;;;;;;5058554;28;20048;-79
2022/09/12 01:40:03;;;;;;;13.85;8.23;;;11.10;99.90;;;;;;5045797;28;20033;-79
2022/09/12 01:42:43;;;;;;;12.85;8.15;;;11.10;99.90;;;;;;5066921;28;20441;-78
2022/09/12 01:45:17;;;;;;;12.52;7.53;;;11.10;99.90;;;;;;5057938;28;20059;-78
2022/09/12 01:48:02;;;;;;;11.07;7.60;;;11.00;99.90;;;;;;5035771;28;20052;-79
2022/09/12 01:50:32;;;;;;;16.95;8.68;;;10.90;99.90;;;;;;5035906;28;20036;-78
2022/09/12 01:53:25;;;;;;;;;;;10.90;99.90;;;;;;5036520;28;20044;-79
2022/09/12 01:56:04;;;;;;;11.30;7.03;;;10.90;99.90;;;;;;5048056;28;20014;-79
2022/09/12 01:59:04;;;;;;;11.10;7.43;;;10.80;99.90;;;;;;5033877;28;20052;-81
2022/09/12 02:01:32;;;;;;;13.60;8.30;;;10.70;99.90;;;;;;5035702;28;20040;-79
2022/09/12 02:04:23;;;;;;;14.75;9.07;;;10.80;99.90;;;;;;5035802;28;20416;-79
2022/09/12 02:07:07;;;;;;;17.85;8.77;;;10.80;99.90;;;;;;5053985;28;20036;-79
2022/09/12 02:10:07;;;;;;;13.02;8.35;;;10.80;99.90;;;;;;5051627;28;20029;-79
2022/09/12 02:12:45;;;;;;;17.58;9.60;;;10.90;99.90;;;;;;5050312;28;20037;-80
2022/09/12 02:15:13;;;;;;;10.23;7.78;;;10.80;99.90;;;;;;5053983;28;20355;-79
2022/09/12 02:17:45;;;;;;;12.93;8.48;;;10.80;99.90;;;;;;5052639;28;20037;-79
2022/09/12 02:20:33;;;;;;;14.25;7.75;;;10.80;99.90;;;;;;5055052;28;20032;-79
2022/09/12 02:23:00;;;;;;;13.90;8.95;;;10.70;99.90;;;;;;5053396;28;20029;-78
2022/09/12 02:25:29;;;;;;;12.50;8.77;;;10.70;99.90;;;;;;5053284;28;20029;-78
2022/09/12 02:28:05;;;;;;;15.52;8.75;;;10.70;99.90;;;;;;5051872;28;20055;-78
2022/09/12 02:30:40;;;;;;;15.98;8.93;;;10.70;99.90;;;;;;5052882;28;20029;-78
2022/09/12 02:33:27;;;;;;;16.45;8.60;;;10.70;99.90;;;;;;5032231;28;20033;-79
2022/09/12 02:36:06;;;;;;;13.57;8.70;;;10.70;99.90;;;;;;5034354;28;20042;-79
2022/09/12 02:38:45;;;;;;;13.18;8.57;;;10.70;99.90;;;;;;5033563;28;20489;-79
2022/09/12 02:41:14;;;;;;;12.27;8.00;;;10.70;99.90;;;;;;5053582;28;20079;-79
2022/09/12 02:43:40;;;;;;;13.35;7.75;;;10.50;99.90;;;;;;5053132;28;20033;-79
2022/09/12 02:46:12;;;;;;;13.10;8.13;;;10.40;99.90;;;;;;5053200;28;20036;-78
2022/09/12 02:48:42;;;;;;;18.38;8.60;;;10.30;99.90;;;;;;5051492;28;20032;-79
2022/09/12 02:51:10;;;;;;;13.13;8.25;;;10.20;99.90;;;;;;5052545;28;20029;-79
2022/09/12 02:53:37;;;;;;;13.60;8.77;;;10.20;99.90;;;;;;5052106;28;20033;-79
2022/09/12 02:56:09;;;;;;;12.07;9.27;;;10.30;99.90;;;;;;5053025;28;20032;-79
2022/09/12 02:58:36;;;;;;;12.57;8.40;;;10.30;99.90;;;;;;5050651;28;20033;-79
2022/09/12 03:01:08;;;;;;;14.50;7.90;;;10.30;99.90;;;;;;5052855;28;20040;-79
2022/09/12 03:04:03;;;;;;;12.95;7.30;;;10.30;99.90;;;;;;5034397;28;20052;-79
2022/09/12 03:06:45;;;;;;;13.45;8.07;;;10.40;99.90;;;;;;5034316;28;20056;-78
2022/09/12 03:09:44;;;;;;;14.43;8.30;;;10.30;99.90;;;;;;5040787;28;20041;-79
2022/09/12 03:12:20;;;;;;;12.57;7.65;;;10.20;99.90;;;;;;4995784;28;20065;-79
2022/09/12 03:15:09;;;;;;;12.32;7.90;;;10.30;99.90;;;;;;5053279;28;20394;-80
2022/09/12 03:17:54;;;;;;;12.27;7.65;;;10.30;99.90;;;;;;5051265;28;20389;-79
2022/09/12 03:20:38;;;;;;;11.30;7.80;;;10.30;99.90;;;;;;5033582;28;20045;-79
2022/09/12 03:23:18;;;;;;;13.63;8.20;;;10.30;99.90;;;;;;5052688;28;20052;-78
2022/09/12 03:26:00;;;;;;;13.73;8.35;;;10.30;99.90;;;;;;5034273;28;20045;-78
2022/09/12 03:28:26;;;;;;;11.93;7.20;;;10.30;99.90;;;;;;5050154;28;20048;-78
2022/09/12 03:30:54;;;;;;;11.45;7.05;;;10.30;99.90;;;;;;5052410;28;20052;-79
2022/09/12 03:33:22;;;;;;;11.45;7.05;;;10.20;99.90;;;;;;5051677;28;20038;-79
2022/09/12 03:35:50;;;;;;;13.93;8.85;;;10.30;99.90;;;;;;5052045;28;20029;-79
2022/09/12 03:38:16;;;;;;;13.20;8.07;;;10.30;99.90;;;;;;5033094;28;20504;-78
2022/09/12 03:40:43;;;;;;;13.50;7.22;;;10.30;99.90;;;;;;5052356;28;20442;-78
2022/09/12 03:43:10;;;;;;;11.70;7.05;;;10.10;99.90;;;;;;5051895;28;20036;-78
2022/09/12 03:45:37;;;;;;;12.27;7.50;;;10.00;99.90;;;;;;5040814;28;20414;-79
2022/09/12 03:48:04;;;;;;;12.02;7.80;;;10.00;99.90;;;;;;5050205;28;20056;-78
2022/09/12 03:50:31;;;;;;;11.88;7.25;;;10.00;99.90;;;;;;5017082;28;20470;-77
2022/09/12 03:53:01;;;;;;;15.95;8.35;;;10.00;99.90;;;;;;5052272;28;20036;-79
2022/09/12 03:55:27;;;;;;;12.95;8.02;;;10.10;99.90;;;;;;5051531;28;20033;-78
2022/09/12 03:57:54;;;;;;;10.73;7.80;;;10.10;99.90;;;;;;5050455;28;20538;-79
2022/09/12 04:00:20;;;;;;;10.57;6.15;;;10.10;99.90;;;;;;5051021;28;20402;-79
2022/09/12 04:02:47;;;;;;;15.38;8.18;;;10.10;99.90;;;;;;5053431;28;20028;-78
2022/09/12 04:05:13;;;;;;;11.18;7.50;;;10.00;99.90;;;;;;5054940;28;20473;-78
2022/09/12 04:07:39;;;;;;;12.07;7.38;;;10.00;99.90;;;;;;5046971;28;20050;-79
2022/09/12 04:10:06;;;;;;;10.23;7.57;;;10.00;99.90;;;;;;5041921;28;20042;-78
2022/09/12 04:12:34;;;;;;;11.48;7.57;;;9.90;99.90;;;;;;5054841;28;20033;-79
2022/09/12 04:15:00;;;;;;;14.85;8.68;;;9.90;99.90;;;;;;5037072;28;20044;-80
2022/09/12 04:17:26;;;;;;;12.30;7.55;;;9.80;99.90;;;;;;5020354;28;20045;-79
2022/09/12 04:19:52;;;;;;;15.02;7.97;;;9.70;99.90;;;;;;5037592;28;20040;-80
2022/09/12 04:22:19;;;;;;;11.45;7.95;;;9.70;99.90;;;;;;5055662;28;20052;-79
2022/09/12 04:24:46;;;;;;;13.23;7.57;;;9.70;99.90;;;;;;5055322;28;20390;-80
2022/09/12 04:27:12;;;;;;;10.90;6.88;;;9.60;99.90;;;;;;5054887;28;20041;-80
2022/09/12 04:29:38;;;;;;;15.50;10.00;;;9.60;99.90;;;;;;5036447;28;20033;-82
2022/09/12 04:32:04;;;;;;;12.90;8.18;;;9.50;99.90;;;;;;5055638;28;20536;-82
2022/09/12 04:34:31;;;;;;;16.00;8.60;;;9.60;99.90;;;;;;5054568;28;20029;-82
2022/09/12 04:36:57;;;;;;;11.32;7.65;;;9.60;99.90;;;;;;5037395;28;20052;-82
2022/09/12 04:39:23;;;;;;;13.75;7.95;;;9.50;99.90;;;;;;5053729;28;20025;-82
2022/09/12 04:41:50;;;;;;;15.98;7.90;;;9.60;99.90;;;;;;5055580;28;20479;-82
2022/09/12 04:44:17;;;;;;;11.18;7.72;;;9.60;99.90;;;;;;5055040;28;20037;-82
2022/09/12 04:46:45;;;;;;;11.68;7.47;;;9.60;99.90;;;;;;5050004;28;20041;-83
2022/09/12 04:49:13;;;;;;;12.32;8.40;;;9.60;99.90;;;;;;5052330;28;20032;-83
2022/09/12 04:51:40;;;;;;;14.13;8.98;;;9.60;99.90;;;;;;5054826;28;20433;-83
2022/09/12 04:54:14;;;;;;;15.65;8.85;;;9.70;99.90;;;;;;5057968;28;20040;-82
2022/09/12 04:56:43;;;;;;;13.90;9.00;;;9.70;99.90;;;;;;5040368;28;20040;-82
2022/09/12 04:59:10;;;;;;;12.27;7.55;;;9.60;99.90;;;;;;5036266;28;20056;-82
2022/09/12 05:01:36;;;;;;;13.57;8.02;;;9.70;99.90;;;;;;5054340;28;20040;-82
2022/09/12 05:04:03;;;;;;;13.73;8.63;;;9.70;99.90;;;;;;5054779;28;20363;-82
2022/09/12 05:06:31;;;;;;;14.90;9.27;;;9.80;99.90;;;;;;5053995;28;20040;-82
2022/09/12 05:08:58;;;;;;;11.88;8.23;;;9.80;99.90;;;;;;5053606;28;20044;-81
2022/09/12 05:11:28;;;;;;;13.20;8.07;;;9.80;99.90;;;;;;5020400;28;20052;-83
2022/09/12 05:13:54;;;;;;;12.07;7.57;;;9.90;99.90;;;;;;5054784;28;20040;-82
2022/09/12 05:16:22;;;;;;;12.10;7.22;;;9.80;99.90;;;;;;5035430;28;20398;-82
2022/09/12 05:18:49;;;;;;;11.50;6.95;;;9.70;99.90;;;;;;5053263;28;20028;-82
2022/09/12 05:21:18;;;;;;;11.77;7.47;;;9.60;99.90;;;;;;5037805;28;20389;-83
2022/09/12 05:23:46;;;;;;;15.43;7.63;;;9.60;99.90;;;;;;5055429;28;20037;-82
2022/09/12 05:26:14;;;;;;;14.88;7.22;;;9.60;99.90;;;;;;5054321;28;20037;-82
2022/09/12 05:28:40;;;;;;;13.38;9.00;;;9.70;99.90;;;;;;5035571;28;20056;-81
2022/09/12 05:31:12;;;;;;;13.68;8.27;;;9.90;99.90;;;;;;5054543;28;20029;-81
2022/09/12 05:33:40;;;;;;;13.77;8.45;;;10.00;99.90;;;;;;5054203;28;20040;-80
2022/09/12 05:36:11;;;;;;;13.98;9.30;;;10.10;99.90;;;;;;5036218;28;20041;-80
2022/09/12 05:38:37;;;;;;;16.48;9.35;;;10.20;99.90;;;;;;5052806;28;20028;-80
2022/09/12 05:41:09;;;;;;;14.27;9.10;;;10.40;99.90;;;;;;5036257;28;20037;-79
2022/09/12 05:43:40;;;;;;;11.20;7.75;;;10.60;99.90;;;;;;5053677;28;20033;-79
2022/09/12 05:46:12;;;;;;;14.35;8.68;;;11.10;99.90;;;;;;5057135;28;20044;-80
2022/09/12 05:48:39;;;;;;;11.70;7.50;;;11.70;99.90;;;;;;5053450;28;20413;-80
2022/09/12 05:51:20;;;;;;;9.60;6.35;;;12.30;99.90;;;;;;5054292;28;20029;-82
2022/09/12 05:53:49;;;;;;;10.35;6.32;;;13.00;99.90;;;;;;5054110;28;20037;-83
2022/09/12 05:56:21;;;;;;;8.70;6.78;;;13.80;99.90;;;;;;5037236;28;20033;-86
2022/09/12 05:58:53;;;;;;;11.30;6.78;;;14.20;99.90;;;;;;5036133;28;20083;-89
2022/09/12 06:01:19;;;;;;;13.43;7.57;;;14.30;99.90;;;;;;5058005;28;20056;-84
2022/09/12 06:03:50;;;;;;;11.38;7.43;;;14.20;99.90;;;;;;5040193;28;20052;-80
2022/09/12 06:06:19;;;;;;;12.73;8.63;;;14.20;99.90;;;;;;5045522;28;20041;-84
2022/09/12 06:08:47;;;;;;;13.50;8.48;;;13.90;99.90;;;;;;5063032;28;20037;-89
2022/09/12 06:11:19;;;;;;;14.02;10.18;;;13.60;99.90;;;;;;5058252;28;20032;-89
2022/09/12 06:13:46;;;;;;;15.82;8.60;;;13.40;99.90;;;;;;5037837;28;20037;-90
2022/09/12 06:16:16;;;;;;;19.70;10.00;;;13.30;99.90;;;;;;5013614;28;20053;-90
2022/09/12 06:18:53;;;;;;;17.07;9.47;;;13.10;99.90;;;;;;5009866;28;20052;-90
2022/09/12 06:21:21;;;;;;;14.02;9.00;;;13.20;99.90;;;;;;5042213;28;20040;-89
2022/09/12 06:23:48;;;;;;;11.75;8.15;;;13.20;99.90;;;;;;5046330;28;20406;-88
2022/09/12 06:26:16;;;;;;;12.82;8.52;;;13.10;99.90;;;;;;5031692;28;20042;-83
2022/09/12 06:28:44;;;;;;;11.93;8.82;;;13.20;99.90;;;;;;5043483;28;20048;-88
2022/09/12 06:31:12;;;;;;;11.57;7.30;;;13.30;99.90;;;;;;5025329;28;20032;-88
2022/09/12 06:33:41;;;;;;;13.43;8.20;;;13.40;99.90;;;;;;5029696;28;20033;-88
2022/09/12 06:36:13;;;;;;;11.02;7.57;;;13.40;99.90;;;;;;5032759;28;20503;-87
2022/09/12 06:38:40;;;;;;;10.63;7.28;;;13.40;99.90;;;;;;5057568;28;20072;-88
2022/09/12 06:41:09;;;;;;;11.70;7.35;;;13.40;99.90;;;;;;5054368;28;20036;-91
2022/09/12 06:43:35;;;;;;;13.63;8.13;;;13.40;99.90;;;;;;5054984;28;20033;-87
2022/09/12 06:46:02;;;;;;;10.43;7.45;;;14.00;99.90;;;;;;5022140;28;20037;-89
2022/09/12 06:48:28;;;;;;;11.60;7.05;;;14.30;99.90;;;;;;5037575;28;20055;-89
2022/09/12 06:51:01;;;;;;;11.48;6.88;;;14.50;99.90;;;;;;5038597;28;20024;-89
2022/09/12 06:53:29;;;;;;;10.60;7.10;;;14.60;99.90;;;;;;5054015;28;20044;-88
2022/09/12 06:56:08;;;;;;;13.23;7.97;;;14.30;99.90;;;;;;5036339;28;20032;-89
2022/09/12 06:58:36;;;;;;;10.70;7.57;;;14.10;99.90;;;;;;5033751;28;20052;-89
2022/09/12 07:01:14;;;;;;;12.25;7.88;;;14.00;99.90;;;;;;5053792;28;20624;-88
2022/09/12 07:03:41;;;;;;;13.60;8.38;;;14.00;99.90;;;;;;5034772;28;20060;-90
2022/09/12 07:06:11;;;;;;;13.48;8.15;;;14.10;99.90;;;;;;5046066;28;20029;-88
2022/09/12 07:08:38;;;;;;;;;;;14.10;99.90;;;;;;5035437;28;20455;-89
2022/09/12 07:11:17;;;;;;;11.77;9.27;;;14.10;99.90;;;;;;5037101;28;19909;-89
2022/09/12 07:13:44;;;;;;;12.65;8.70;;;14.00;99.90;;;;;;5054628;28;20048;-86
2022/09/12 07:16:12;;;;;;;11.52;7.97;;;14.50;99.90;;;;;;5036415;28;20049;-89
2022/09/12 07:18:39;;;;;;;10.88;7.75;;;14.80;99.90;;;;;;5053958;28;20458;-89
2022/09/12 07:21:14;;;;;;;11.90;9.35;;;15.00;99.90;;;;;;5056465;28;20466;-91
2022/09/12 07:23:41;;;;;;;10.75;8.25;;;15.20;99.90;;;;;;5036194;28;20041;-89
2022/09/12 07:26:10;;;;;;;13.00;8.50;;;15.30;99.90;;;;;;5063227;28;20025;-91
2022/09/12 07:28:37;;;;;;;14.77;8.88;;;15.80;99.90;;;;;;5066362;28;20053;-90
2022/09/12 07:31:10;;;;;;;12.35;8.82;;;15.80;99.90;;;;;;5053996;28;20616;-92
2022/09/12 07:33:38;;;;;;;10.82;7.72;;;15.90;99.90;;;;;;5052856;28;20040;-89
2022/09/12 07:36:07;;;;;;;11.50;8.63;;;16.20;99.90;;;;;;5052528;28;20025;-88
2022/09/12 07:38:34;;;;;;;12.25;7.97;;;16.50;99.90;;;;;;5052356;28;20059;-90
2022/09/12 07:41:00;;;;;;;12.82;8.30;;;16.60;99.90;;;;;;5063099;28;20120;-88
2022/09/12 07:43:27;;;;;;;11.93;8.60;;;16.10;99.90;;;;;;5054132;28;20454;-86
2022/09/12 07:45:54;;;;;;;10.80;7.05;;;15.80;99.90;;;;;;5034214;28;20033;-89
2022/09/12 07:48:21;;;;;;;10.70;8.52;;;15.90;99.90;;;;;;5051061;28;20045;-86
2022/09/12 07:50:49;;;;;;;11.32;8.98;;;15.90;99.90;;;;;;5034778;28;20033;-87
2022/09/12 07:53:15;;;;;;;13.52;8.45;;;16.10;99.90;;;;;;5052679;28;20450;-86
2022/09/12 07:55:41;;;;;;;10.45;7.88;;;16.20;99.90;;;;;;5032758;28;20045;-88
2022/09/12 07:58:07;;;;;;;10.05;7.55;;;16.70;99.90;;;;;;5026452;28;20124;-86
2022/09/12 08:00:36;;;;;;;9.02;7.38;;;16.70;99.90;;;;;;5033716;28;20044;-85
2022/09/12 08:03:03;;;;;;;11.20;7.75;;;17.10;99.90;;;;;;5052045;28;20029;-86
2022/09/12 08:05:29;;;;;;;9.65;7.78;;;18.00;99.90;;;;;;5051378;28;20048;-85
2022/09/12 08:07:55;;;;;;;13.15;8.43;;;18.30;99.90;;;;;;5034248;28;20048;-86
2022/09/12 08:10:22;;;;;;;10.27;7.45;;;18.30;99.90;;;;;;5038708;28;20044;-86
2022/09/12 08:12:49;;;;;;;8.80;7.35;;;18.20;99.90;;;;;;5038485;28;20041;-86
2022/09/12 08:15:16;;;;;;;9.55;6.93;;;18.70;99.90;;;;;;5052246;28;20021;-88
2022/09/12 08:17:42;;;;;;;11.43;6.70;;;18.90;99.90;;;;;;5051623;28;20033;-85
2022/09/12 08:20:08;;;;;;;9.90;6.95;;;18.70;99.90;;;;;;5035446;28;20053;-87
2022/09/12 08:22:34;;;;;;;8.75;6.50;;;18.70;99.90;;;;;;5046045;28;20029;-86
2022/09/12 08:25:00;;;;;;;8.65;6.40;;;19.00;99.90;;;;;;5051911;28;20048;-85
2022/09/12 08:27:27;;;;;;;8.15;6.05;;;19.40;99.90;;;;;;5033936;28;20048;-85
2022/09/12 08:29:54;;;;;;;7.13;5.72;;;20.00;99.90;;;;;;5034795;28;20422;-85
2022/09/12 08:32:20;;;;;;;8.18;5.75;;;20.60;99.90;;;;;;5033585;28;20045;-87
2022/09/12 08:34:46;;;;;;;8.23;6.13;;;20.80;99.90;;;;;;5033164;28;20040;-87
2022/09/12 08:37:12;;;;;;;6.47;5.35;;;20.80;99.90;;;;;;5051796;28;20036;-87
2022/09/12 08:39:38;;;;;;;8.20;6.10;;;20.60;99.90;;;;;;5031953;28;20044;-86
2022/09/12 08:42:05;;;;;;;7.38;5.32;;;21.00;99.90;;;;;;5033954;28;20032;-87
2022/09/12 08:45:08;;;;;;;10.15;6.00;;;21.30;99.80;;;;;;5016595;28;20036;-86
2022/09/12 08:47:40;;;;;;;7.32;4.93;;;21.30;97.80;;;;;;5051952;28;20041;-86
2022/09/12 08:50:15;;;;;;;8.27;5.47;;;21.00;99.30;;;;;;5055044;28;20068;-86
2022/09/12 08:52:58;;;;;;;9.45;5.15;;;21.20;96.70;;;;;;5054864;28;20028;-87
2022/09/12 08:55:26;;;;;;;8.63;5.22;;;21.40;96.70;;;;;;5057349;28;20040;-85
2022/09/12 08:57:53;;;;;;;6.85;4.70;;;21.10;95.70;;;;;;5019968;28;20041;-85
2022/09/12 09:00:20;;;;;;;6.97;5.20;;;20.80;97.40;;;;;;5053457;28;20405;-86
2022/09/12 09:02:56;;;;;;;6.38;4.85;;;21.30;97.20;;;;;;5054808;28;20488;-86
2022/09/12 09:05:29;;;;;;;6.22;4.53;;;22.10;94.30;;;;;;5055881;28;20037;-86
2022/09/12 09:08:20;;;;;;;6.57;5.45;;;22.50;92.40;;;;;;5037543;28;20490;-86
2022/09/12 09:11:01;;;;;;;7.68;5.22;;;22.40;90.20;;;;;;5038283;28;20033;-86
2022/09/12 09:16:29;;;;;;;5.22;4.15;;;22.20;91.00;;;;;;5058738;28;20029;-86
2022/09/12 09:18:59;;;;;;;4.78;3.70;;;22.60;90.60;;;;;;5020140;28;20053;-87
2022/09/12 09:21:34;;;;;;;;;;;23.00;85.20;;;;;;5035990;28;20029;-86
2022/09/12 09:24:05;;;;;;;6.57;4.63;;;23.20;85.40;;;;;;5054914;28;19931;-86
2022/09/12 09:26:50;;;;;;;6.63;4.32;;;23.30;83.80;;;;;;5030102;28;20049;-84
2022/09/12 09:29:19;;;;;;;6.22;4.78;;;23.30;80.00;;;;;;5049913;28;20044;-86
2022/09/12 09:31:52;;;;;;;6.07;5.10;;;23.50;79.60;;;;;;5053180;28;20359;-85
2022/09/12 09:34:21;;;;;;;5.90;4.75;;;23.60;80.50;;;;;;5060561;28;20068;-86
2022/09/12 09:37:01;;;;;;;5.90;4.90;;;23.60;77.30;;;;;;5064698;28;20033;-87
2022/09/12 09:39:50;;;;;;;6.63;4.50;;;23.00;80.70;;;;;;5036353;28;20059;-87
2022/09/12 09:42:38;;;;;;;6.20;4.88;;;22.90;79.80;;;;;;5058793;28;20029;-87
2022/09/12 09:45:15;;;;;;;5.70;5.10;;;22.90;79.90;;;;;;5058654;28;20033;-85
2022/09/12 09:48:04;;;;;;;5.68;4.60;;;23.00;78.30;;;;;;5037258;28;20048;-84
2022/09/12 09:50:30;;;;;;;7.03;4.80;;;23.10;78.90;;;;;;5021154;28;20043;-85
2022/09/12 09:53:00;;;;;;;7.10;4.55;;;22.90;78.10;;;;;;5054477;28;20280;-84
2022/09/12 09:55:33;;;;;;;8.07;4.88;;;23.10;79.60;;;;;;5030026;28;20036;-83
2022/09/12 09:57:59;;;;;;;5.93;4.63;;;22.70;78.00;;;;;;5036651;28;20037;-83
2022/09/12 10:00:30;;;;;;;7.63;4.68;;;22.50;78.60;;;;;;5037469;28;20505;-83
2022/09/12 10:03:09;;;;;;;7.30;4.75;;;22.30;79.50;;;;;;5035001;28;20041;-83
2022/09/12 10:05:47;;;;;;;7.53;5.53;;;22.70;82.80;;;;;;5062118;28;20033;-84
2022/09/12 10:08:23;;;;;;;6.82;5.28;;;23.00;80.40;;;;;;5036951;28;20048;-84
2022/09/12 10:11:00;;;;;;;8.70;4.63;;;23.10;79.50;;;;;;5034915;28;20044;-84
2022/09/12 10:13:40;;;;;;;5.72;4.75;;;23.40;79.80;;;;;;5054626;28;20041;-84
2022/09/12 10:16:28;;;;;;;7.47;5.65;;;23.60;78.90;;;;;;5053649;28;20367;-84
2022/09/12 10:19:00;;;;;;;7.35;4.70;;;23.10;76.50;;;;;;5020393;28;20057;-84
2022/09/12 10:21:40;;;;;;;5.75;4.32;;;23.10;80.30;;;;;;5048872;28;20033;-84
2022/09/12 10:24:24;;;;;;;4.70;3.80;;;23.40;74.10;;;;;;5040398;28;20037;-85
2022/09/12 10:26:57;;;;;;;5.07;3.55;;;23.10;73.60;;;;;;5038992;28;20036;-85
2022/09/12 10:29:30;;;;;;;6.43;3.42;;;23.20;76.00;;;;;;5031298;28;20045;-88
2022/09/12 10:32:00;;;;;;;5.55;3.85;;;23.50;74.00;;;;;;5041527;28;20040;-84
2022/09/12 10:34:35;;;;;;;4.55;3.72;;;23.20;74.60;;;;;;5039186;28;20045;-88
2022/09/12 10:37:05;;;;;;;4.07;3.67;;;23.10;73.20;;;;;;5058835;28;20028;-88
2022/09/12 10:39:33;;;;;;;3.78;2.78;;;23.30;74.80;;;;;;5043862;28;20116;-88
2022/09/12 10:42:00;;;;;;;3.78;3.35;;;23.30;73.90;;;;;;5039241;28;20040;-89
2022/09/12 10:44:32;;;;;;;3.72;3.00;;;23.30;73.30;;;;;;5057726;28;20202;-87
2022/09/12 10:47:18;;;;;;;4.97;3.75;;;23.40;71.90;;;;;;5040167;28;20068;-91
2022/09/12 10:49:44;;;;;;;4.57;3.50;;;23.20;68.80;;;;;;5046353;28;20060;-88
2022/09/12 10:52:24;;;;;;;5.05;3.00;;;23.20;70.70;;;;;;5041609;28;20044;-89
2022/09/12 10:54:51;;;;;;;4.55;3.00;;;23.50;69.40;;;;;;5038202;28;20041;-88
2022/09/12 10:57:32;;;;;;;4.18;3.20;;;23.70;67.20;;;;;;5039982;28;20037;-91
2022/09/12 11:00:19;;;;;;;3.95;3.08;;;23.90;65.40;;;;;;5033188;28;20048;-89
2022/09/12 11:03:15;;;;;;;4.15;3.25;;;23.40;68.00;;;;;;5018071;28;20048;-86
2022/09/12 11:05:52;;;;;;;3.70;2.78;;;23.60;72.00;;;;;;5034395;28;20505;-86
2022/09/12 11:08:47;;;;;;;5.30;3.38;;;24.00;68.50;;;;;;5035547;28;20048;-87
2022/09/12 11:11:22;;;;;;;4.78;3.08;;;23.70;68.40;;;;;;5052097;28;20390;-87
2022/09/12 11:14:22;;;;;;;8.55;3.15;;;23.80;67.10;;;;;;5052151;28;20041;-87
2022/09/12 11:16:54;;;;;;;8.18;2.92;;;23.90;66.20;;;;;;5034708;28;20033;-88
2022/09/12 11:19:20;;;;;;;4.50;3.25;;;23.70;66.30;;;;;;5033145;28;20051;-86
2022/09/12 11:22:23;;;;;;;3.83;2.72;;;23.70;65.70;;;;;;5034102;28;20147;-87
2022/09/12 11:25:19;;;;;;;3.83;2.92;;;23.90;67.80;;;;;;5034303;28;20033;-86
2022/09/12 11:28:11;;;;;;;4.32;3.13;;;24.00;67.10;;;;;;5051791;28;20390;-86
2022/09/12 11:31:23;;;;;;;4.00;3.60;;;23.90;65.10;;;;;;5032478;28;20041;-85
2022/09/12 11:33:51;;;;;;;3.55;2.78;;;24.10;66.60;;;;;;5027426;28;20390;-88
2022/09/12 11:36:35;;;;;;;4.15;3.25;;;23.90;63.90;;;;;;5052136;28;20048;-88
2022/09/12 11:39:13;;;;;;;4.20;3.05;;;23.50;64.60;;;;;;5052333;28;20041;-84
2022/09/12 11:41:50;;;;;;;4.57;2.75;;;23.30;65.40;;;;;;5039725;28;20040;-86
2022/09/12 11:44:28;;;;;;;5.32;3.70;;;23.20;64.20;;;;;;5034412;28;20458;-86
2022/09/12 11:46:54;;;;;;;3.63;2.30;;;23.30;64.30;;;;;;5033696;28;20025;-88
2022/09/12 11:49:48;;;;;;;4.53;2.10;;;23.40;64.20;;;;;;5050423;28;20475;-88
2022/09/12 11:52:24;;;;;;;2.88;1.88;;;23.80;61.10;;;;;;5019382;28;20045;-88
2022/09/12 11:55:05;;;;;;;3.50;2.03;;;24.20;62.90;;;;;;5032606;28;20029;-89
2022/09/12 11:57:46;;;;;;;3.85;1.90;;;24.60;60.30;;;;;;5032816;28;20041;-88
2022/09/12 12:00:24;;;;;;;2.03;1.67;;;24.50;60.00;;;;;;5015446;28;20046;-82
2022/09/12 12:03:05;;;;;;;2.28;1.42;;;24.50;57.30;;;;;;5025033;28;20391;-89
2022/09/12 12:06:00;;;;;;;2.30;2.00;;;24.10;58.30;;;;;;5030461;28;20050;-86
2022/09/12 12:08:29;;;;;;;4.32;2.00;;;24.30;56.80;;;;;;5032556;28;20116;-86
2022/09/12 12:10:59;;;;;;;1.75;1.45;;;24.60;57.20;;;;;;5028856;28;20044;-87
2022/09/12 12:13:44;;;;;;;2.05;1.45;;;24.80;55.70;;;;;;5027879;28;20041;-86
2022/09/12 12:16:22;;;;;;;2.10;1.70;;;24.90;55.60;;;;;;5026061;28;20045;-83
2022/09/12 12:18:54;;;;;;;1.90;1.30;;;25.10;55.40;;;;;;5031907;28;20050;-89
2022/09/12 12:21:34;;;;;;;1.70;1.30;;;25.10;54.20;;;;;;5031406;28;20033;-91
2022/09/12 12:24:06;;;;;;;1.63;1.20;;;24.70;55.20;;;;;;5031076;28;20423;-90
2022/09/12 12:26:38;;;;;;;1.77;1.27;;;24.90;55.20;;;;;;5035343;28;20052;-90
2022/09/12 12:29:20;;;;;;;2.53;1.60;;;24.90;52.80;;;;;;5035211;28;20045;-87
2022/09/12 12:32:00;;;;;;;3.08;1.25;;;24.90;53.80;;;;;;5055984;28;20034;-88
2022/09/12 12:34:38;;;;;;;2.05;1.42;;;24.90;52.50;;;;;;5047658;28;20044;-89
2022/09/12 12:37:20;;;;;;;1.58;1.13;;;24.90;53.40;;;;;;5034729;28;20029;-89
2022/09/12 12:39:49;;;;;;;1.48;1.23;;;25.10;53.60;;;;;;5032180;28;20045;-89
2022/09/12 12:42:34;;;;;;;1.30;1.20;;;25.20;53.10;;;;;;5035226;28;20045;-90
2022/09/12 12:45:02;;;;;;;1.73;1.20;;;25.30;53.70;;;;;;5035527;28;20037;-89
2022/09/12 12:47:43;;;;;;;7.28;1.40;;;25.30;50.50;;;;;;5035031;28;20464;-89
2022/09/12 12:50:09;;;;;;;1.60;1.10;;;25.10;51.70;;;;;;5034465;28;20081;-90
2022/09/12 12:52:47;;;;;;;1.13;0.85;;;25.20;51.60;;;;;;5035910;28;20041;-88
2022/09/12 12:55:21;;;;;;;1.35;1.05;;;25.00;50.30;;;;;;5032267;28;20049;-89
2022/09/12 12:57:52;;;;;;;1.00;0.70;;;24.70;51.40;;;;;;5032093;28;20048;-89
2022/09/12 13:00:28;;;;;;;1.88;1.27;;;24.60;49.70;;;;;;5032353;28;20041;-87
2022/09/12 13:03:05;;;;;;;1.38;1.08;;;24.50;51.40;;;;;;5036056;28;20038;-88
2022/09/12 13:05:53;;;;;;;2.33;1.40;;;24.90;50.60;;;;;;5037365;28;20034;-88
2022/09/12 13:08:19;;;;;;;2.72;1.60;;;25.20;52.00;;;;;;5035171;28;20026;-87
2022/09/12 13:10:51;;;;;;;1.30;1.00;;;25.30;51.40;;;;;;5031752;28;20042;-81
2022/09/12 13:13:26;;;;;;;2.45;0.80;;;25.50;50.50;;;;;;5033632;28;20056;-83
2022/09/12 13:15:53;;;;;;;1.90;1.00;;;25.60;48.90;;;;;;5032452;28;20470;-83
2022/09/12 13:18:32;;;;;;;1.20;0.95;;;25.60;49.00;;;;;;5034763;28;20041;-81